createdAt,value
2019-01-19T00:03:32.418Z,-3.20
2019-01-19T00:09:10.201Z,-3.20
2019-01-19T00:14:31.041Z,-3.20
2019-01-19T00:20:24.748Z,-3.30
2019-01-19T00:26:14.635Z,-3.30
2019-01-19T00:31:26.637Z,-3.30
2019-01-19T00:37:06.257Z,-3.40
2019-01-19T00:42:35.545Z,-3.30
2019-01-19T00:48:05.844Z,-3.30
2019-01-19T00:53:46.917Z,-3.20
2019-01-19T00:59:10.548Z,-3.30
2019-01-19T01:04:28.643Z,-3.30
2019-01-19T01:10:17.415Z,-3.30
2019-01-19T01:16:12.415Z,-3.30
2019-01-19T01:21:47.302Z,-3.30
2019-01-19T01:27:27.058Z,-3.20
2019-01-19T01:33:13.842Z,-3.30
2019-01-19T01:38:52.031Z,-3.30
2019-01-19T01:44:32.339Z,-3.30
2019-01-19T01:49:48.592Z,-3.30
2019-01-19T01:55:13.785Z,-3.30
2019-01-19T02:01:11.134Z,-3.20
2019-01-19T02:06:42.455Z,-3.20
2019-01-19T02:12:24.875Z,-3.20
2019-01-19T02:17:58.966Z,-3.20
2019-01-19T02:29:14.132Z,-3.30
2019-01-19T02:34:40.656Z,-3.40
2019-01-19T02:40:02.072Z,-3.40
2019-01-19T02:46:02.737Z,-3.50
2019-01-19T02:51:28.721Z,-3.50
2019-01-19T02:57:15.303Z,-3.50
2019-01-19T03:03:03.917Z,-3.50
2019-01-19T03:09:04.573Z,-3.40
2019-01-19T03:14:36.733Z,-3.40
2019-01-19T03:20:10.544Z,-3.40
2019-01-19T03:26:07.728Z,-3.40
2019-01-19T03:32:07.010Z,-3.50
2019-01-19T03:37:46.402Z,-3.40
2019-01-19T03:43:29.128Z,-3.40
2019-01-19T03:49:20.432Z,-3.30
2019-01-19T03:54:58.201Z,-3.30
2019-01-19T04:00:25.845Z,-3.40
2019-01-19T04:05:51.665Z,-3.30
2019-01-19T04:11:34.383Z,-3.20
2019-01-19T04:17:09.019Z,-3.10
2019-01-19T04:22:35.926Z,-2.90
2019-01-19T04:27:43.984Z,-2.80
2019-01-19T04:32:51.182Z,-2.80
2019-01-19T04:37:58.387Z,-2.70
2019-01-19T04:43:06.079Z,-2.60
2019-01-19T04:48:13.136Z,-2.60
2019-01-19T04:53:20.196Z,-2.50
2019-01-19T04:58:27.378Z,-2.40
2019-01-19T05:03:35.094Z,-2.40
2019-01-19T05:08:42.141Z,-2.30
2019-01-19T05:13:49.223Z,-2.20
2019-01-19T05:18:56.416Z,-2.20
2019-01-19T05:24:03.571Z,-2.10
2019-01-19T05:29:10.658Z,-2.10
2019-01-19T05:34:17.693Z,-2.00
2019-01-19T05:39:24.794Z,-2.00
2019-01-19T05:44:31.955Z,-1.90
2019-01-19T05:49:39.143Z,-1.90
2019-01-19T05:54:46.419Z,-1.80
2019-01-19T05:59:53.909Z,-1.80
2019-01-19T06:05:01.573Z,-1.80
2019-01-19T06:10:11.078Z,-1.70
2019-01-19T06:15:19.926Z,-1.70
2019-01-19T06:20:28.095Z,-1.70
2019-01-19T06:25:35.146Z,-1.70
2019-01-19T06:30:42.542Z,-1.70
2019-01-19T06:35:49.634Z,-1.60
2019-01-19T06:40:56.734Z,-1.60
2019-01-19T06:46:03.844Z,-1.60
2019-01-19T06:51:10.933Z,-1.60
2019-01-19T06:56:18.247Z,-1.60
2019-01-19T07:01:25.309Z,-1.50
2019-01-19T07:06:32.359Z,-1.50
2019-01-19T07:11:39.621Z,-1.50
2019-01-19T07:16:48.801Z,-1.40
2019-01-19T07:21:55.850Z,-1.30
2019-01-19T07:27:03.412Z,-1.30
2019-01-19T07:32:10.716Z,-1.30
2019-01-19T07:37:17.790Z,-1.30
2019-01-19T07:42:25.043Z,-1.30
2019-01-19T07:47:32.431Z,-1.20
2019-01-19T07:52:39.632Z,-1.10
2019-01-19T07:57:47.237Z,-1.00
2019-01-19T08:02:54.638Z,-0.80
2019-01-19T08:08:02.059Z,-0.80
2019-01-19T08:13:11.515Z,-0.70
2019-01-19T08:18:18.910Z,-0.80
2019-01-19T08:23:26.271Z,-0.70
2019-01-19T08:28:33.430Z,-0.70
2019-01-19T08:33:41.341Z,-0.60
2019-01-19T08:38:48.623Z,-0.50
2019-01-19T08:43:58.374Z,-0.40
2019-01-19T08:49:05.685Z,-0.30
2019-01-19T08:54:12.798Z,-0.20
2019-01-19T08:59:19.986Z,-0.20
2019-01-19T09:04:27.081Z,-0.20
2019-01-19T09:09:34.162Z,-0.10
2019-01-19T09:14:41.348Z,-0.20
2019-01-19T09:19:48.423Z,-0.10
2019-01-19T09:24:55.637Z,0.00
2019-01-19T09:30:02.861Z,0.10
2019-01-19T09:35:10.597Z,0.20
2019-01-19T09:40:18.453Z,0.20
2019-01-19T09:45:25.526Z,0.10
2019-01-19T09:50:32.595Z,0.20
2019-01-19T09:55:39.797Z,0.30
2019-01-19T10:00:46.873Z,0.40
2019-01-19T10:05:53.957Z,0.40
2019-01-19T10:11:01.152Z,0.50
2019-01-19T10:16:10.823Z,0.50
2019-01-19T10:21:18.246Z,0.50
2019-01-19T10:26:25.397Z,0.40
2019-01-19T10:31:34.261Z,0.50
2019-01-19T10:36:42.508Z,0.60
2019-01-19T10:41:49.871Z,0.80
2019-01-19T10:46:57.192Z,0.90
2019-01-19T10:52:04.268Z,1.00
2019-01-19T10:57:11.645Z,1.00
2019-01-19T11:02:19.024Z,1.10
2019-01-19T11:07:26.459Z,1.30
2019-01-19T11:12:33.509Z,1.30
2019-01-19T11:17:40.678Z,1.20
2019-01-19T11:22:48.014Z,1.10
2019-01-19T11:27:55.098Z,1.00
2019-01-19T11:33:02.554Z,0.90
2019-01-19T11:38:12.157Z,0.90
2019-01-19T11:43:18.331Z,1.00
2019-01-19T11:48:25.513Z,1.00
2019-01-19T11:53:32.962Z,1.10
2019-01-19T11:58:40.403Z,1.10
2019-01-19T12:03:47.590Z,1.20
2019-01-19T12:08:56.246Z,1.20
2019-01-19T12:14:03.348Z,1.20
2019-01-19T12:19:10.422Z,1.20
2019-01-19T12:24:17.455Z,1.20
2019-01-19T12:29:24.642Z,1.20
2019-01-19T12:34:31.871Z,1.30
2019-01-19T12:39:39.037Z,1.30
2019-01-19T12:44:46.119Z,1.30
2019-01-19T12:49:53.290Z,1.20
2019-01-19T12:55:00.520Z,1.30
2019-01-19T13:00:09.348Z,1.30
2019-01-19T13:05:20.057Z,1.40
2019-01-19T13:10:31.253Z,1.50
2019-01-19T13:16:31.414Z,1.50
2019-01-19T13:22:31.355Z,1.40
2019-01-19T13:27:50.963Z,1.30
2019-01-19T13:33:09.909Z,1.30
2019-01-19T13:39:00.174Z,1.30
2019-01-19T13:44:51.390Z,1.20
2019-01-19T13:50:37.960Z,1.20
2019-01-19T13:56:38.459Z,1.10
2019-01-19T14:02:53.870Z,1.00
2019-01-19T14:08:53.916Z,0.90
2019-01-19T14:14:19.911Z,0.80
2019-01-19T14:19:53.991Z,0.70
2019-01-19T14:25:33.513Z,0.70
2019-01-19T14:31:16.435Z,0.60
2019-01-19T14:37:03.715Z,0.60
2019-01-19T14:42:43.109Z,0.60
2019-01-19T14:48:26.783Z,0.50
2019-01-19T14:54:13.299Z,0.50
2019-01-19T15:00:07.204Z,0.40
2019-01-19T15:05:41.555Z,0.40
2019-01-19T15:11:10.711Z,0.30
2019-01-19T15:17:26.700Z,0.30
2019-01-19T15:23:01.056Z,0.30
2019-01-19T15:28:44.764Z,0.30
2019-01-19T15:34:44.312Z,0.30
2019-01-19T15:40:36.901Z,0.20
2019-01-19T15:46:10.235Z,0.20
2019-01-19T15:51:44.911Z,0.20
2019-01-19T15:57:19.459Z,0.20
2019-01-19T16:02:55.316Z,0.10
2019-01-19T16:08:42.148Z,0.20
2019-01-19T16:14:29.655Z,0.10
2019-01-19T16:20:20.293Z,0.10
2019-01-19T16:26:17.364Z,0.00
2019-01-19T16:31:47.056Z,0.00
2019-01-19T16:37:28.051Z,-0.10
2019-01-19T16:43:04.560Z,-0.10
2019-01-19T16:48:48.385Z,-0.10
2019-01-19T16:54:11.188Z,-0.10
2019-01-19T16:59:47.295Z,-0.10
2019-01-19T17:05:12.878Z,-0.10
2019-01-19T17:10:55.235Z,-0.10
2019-01-19T17:16:34.211Z,-0.10
2019-01-19T17:22:07.089Z,-0.20
2019-01-19T17:27:43.541Z,-0.20
2019-01-19T17:33:20.431Z,-0.20
2019-01-19T17:39:18.791Z,-0.20
2019-01-19T17:45:06.631Z,-0.20
2019-01-19T17:50:43.795Z,-0.20
2019-01-19T17:56:10.687Z,-0.20
2019-01-19T18:01:51.946Z,-0.20
2019-01-19T18:59:05.924Z,-0.50
2019-01-19T19:05:05.864Z,-0.40
2019-01-19T19:11:00.623Z,-0.50
2019-01-19T19:16:19.934Z,-0.50
2019-01-19T19:21:56.007Z,-0.50
2019-01-19T19:28:08.201Z,-0.60
2019-01-19T19:33:38.383Z,-0.60
2019-01-19T19:39:29.727Z,-0.60
2019-01-19T19:44:51.266Z,-0.60
2019-01-19T19:50:36.757Z,-0.60
2019-01-19T19:55:46.993Z,-0.60
2019-01-19T20:00:55.282Z,-0.60
2019-01-19T20:06:03.469Z,-0.60
2019-01-19T20:11:10.548Z,-0.70
2019-01-19T20:16:17.584Z,-0.70
2019-01-19T20:21:24.631Z,-0.60
2019-01-19T20:26:31.727Z,-0.70
2019-01-19T20:31:39.069Z,-0.70
2019-01-19T20:36:46.261Z,-0.70
2019-01-19T20:41:53.356Z,-0.60
2019-01-19T20:47:00.420Z,-0.70
2019-01-19T20:52:07.706Z,-0.70
2019-01-19T20:57:14.988Z,-0.70
2019-01-19T21:02:22.521Z,-0.60
2019-01-19T21:07:29.658Z,-0.60
2019-01-19T21:12:36.722Z,-0.60
2019-01-19T21:17:43.997Z,-0.60
2019-01-19T21:22:51.202Z,-0.60
2019-01-19T21:27:58.262Z,-0.60
2019-01-19T21:33:06.007Z,-0.60
2019-01-19T21:38:13.515Z,-0.60
2019-01-19T21:43:20.594Z,-0.60
2019-01-19T21:48:27.775Z,-0.60
2019-01-19T21:53:35.579Z,-0.60
2019-01-19T21:58:42.741Z,-0.70
2019-01-19T22:03:50.167Z,-0.60
2019-01-19T22:08:57.432Z,-0.60
2019-01-19T22:14:04.758Z,-0.70
2019-01-19T22:19:11.834Z,-0.70
2019-01-19T22:24:19.018Z,-0.70
2019-01-19T22:29:26.775Z,-0.60
2019-01-19T22:34:34.529Z,-0.70
2019-01-19T22:39:42.737Z,-0.70
2019-01-19T22:44:49.928Z,-0.70
2019-01-19T22:49:57.115Z,-0.70
2019-01-19T22:55:04.909Z,-0.80
2019-01-19T23:01:00.928Z,-0.80
2019-01-19T23:06:08.696Z,-0.80
2019-01-19T23:11:15.775Z,-0.80
2019-01-19T23:16:24.049Z,-0.80
2019-01-19T23:21:31.201Z,-0.80
2019-01-19T23:26:39.026Z,-0.80
2019-01-19T23:31:46.342Z,-0.90
2019-01-19T23:36:53.427Z,-0.90
2019-01-19T23:42:00.433Z,-0.80
2019-01-19T23:47:07.663Z,-0.80
2019-01-19T23:52:15.056Z,-0.80
2019-01-19T23:57:22.269Z,-0.90
